createdAt,value
2019-05-01T00:02:05.788Z,8.84
2019-05-01T00:04:53.816Z,8.89
2019-05-01T00:07:32.830Z,8.95
2019-05-01T00:10:03.152Z,9.00
2019-05-01T00:12:34.186Z,9.00
2019-05-01T00:15:04.540Z,8.63
2019-05-01T00:17:34.693Z,8.60
2019-05-01T00:20:06.813Z,8.72
2019-05-01T00:22:37.316Z,8.73
2019-05-01T00:25:07.611Z,8.60
2019-05-01T00:27:38.233Z,8.70
2019-05-01T00:30:10.225Z,8.64
2019-05-01T00:32:40.769Z,8.64
2019-05-01T00:35:10.983Z,8.76
2019-05-01T00:37:41.259Z,8.49
2019-05-01T00:40:12.251Z,8.55
2019-05-01T00:42:42.436Z,8.47
2019-05-01T00:45:13.536Z,8.41
2019-05-01T00:47:45.035Z,8.45
2019-05-01T00:50:15.363Z,8.40
2019-05-01T00:52:45.871Z,8.33
2019-05-01T00:55:38.466Z,8.37
2019-05-01T00:58:17.630Z,8.51
2019-05-01T01:01:18.206Z,8.48
2019-05-01T01:03:48.296Z,8.28
2019-05-01T01:06:18.500Z,8.41
2019-05-01T01:08:48.663Z,8.36
2019-05-01T01:11:18.960Z,8.45
2019-05-01T01:13:49.287Z,8.18
2019-05-01T01:16:19.804Z,8.16
2019-05-01T01:18:49.805Z,8.15
2019-05-01T01:21:22.431Z,8.10
2019-05-01T01:23:54.809Z,8.18
2019-05-01T01:26:25.051Z,8.07
2019-05-01T01:28:55.063Z,8.00
2019-05-01T01:31:27.680Z,8.09
2019-05-01T01:33:57.960Z,8.17
2019-05-01T01:36:29.287Z,8.16
2019-05-01T01:38:59.488Z,8.07
2019-05-01T01:41:31.312Z,7.92
2019-05-01T01:44:09.379Z,7.98
2019-05-01T01:46:40.162Z,8.04
2019-05-01T01:49:11.561Z,8.11
2019-05-01T01:51:41.699Z,8.03
2019-05-01T01:54:11.867Z,8.02
2019-05-01T01:56:41.842Z,8.00
2019-05-01T01:59:15.038Z,7.94
2019-05-01T02:02:04.499Z,8.17
2019-05-01T02:05:05.807Z,8.09
2019-05-01T02:07:36.059Z,7.98
2019-05-01T02:10:07.312Z,8.22
2019-05-01T02:12:38.501Z,8.19
2019-05-01T02:15:08.566Z,8.05
2019-05-01T02:17:40.742Z,8.19
2019-05-01T02:20:12.195Z,8.26
2019-05-01T02:22:43.195Z,8.17
2019-05-01T02:25:14.110Z,8.11
2019-05-01T02:28:02.543Z,8.08
2019-05-01T02:30:34.637Z,8.18
2019-05-01T02:33:04.773Z,8.08
2019-05-01T02:35:36.834Z,8.16
2019-05-01T02:38:07.694Z,8.51
2019-05-01T02:40:51.247Z,8.24
2019-05-01T02:43:22.312Z,8.11
2019-05-01T02:45:57.258Z,8.26
2019-05-01T02:48:28.490Z,8.14
2019-05-01T02:51:01.654Z,8.17
2019-05-01T02:53:32.347Z,8.05
2019-05-01T02:56:23.978Z,7.80
2019-05-01T02:58:55.806Z,7.87
2019-05-01T03:01:26.571Z,7.84
2019-05-01T03:03:57.649Z,7.90
2019-05-01T03:06:29.215Z,7.99
2019-05-01T03:09:00.879Z,8.21
2019-05-01T03:11:32.882Z,8.08
2019-05-01T03:14:03.527Z,7.87
2019-05-01T03:16:34.471Z,7.83
2019-05-01T03:19:06.952Z,8.16
2019-05-01T03:21:42.610Z,8.26
2019-05-01T03:24:20.541Z,8.22
2019-05-01T03:26:50.865Z,7.95
2019-05-01T03:29:21.867Z,8.03
2019-05-01T03:32:14.440Z,7.86
2019-05-01T03:34:23.849Z,8.14
2019-05-01T03:36:53.792Z,7.91
2019-05-01T03:39:24.348Z,8.16
2019-05-01T03:41:56.736Z,8.14
2019-05-01T03:44:26.997Z,8.01
2019-05-01T03:46:57.341Z,8.12
2019-05-01T03:49:27.599Z,8.21
2019-05-01T03:51:58.929Z,8.37
2019-05-01T03:54:30.223Z,8.09
2019-05-01T03:57:00.611Z,8.20
2019-05-01T03:59:31.316Z,8.22
2019-05-01T04:02:13.536Z,7.96
2019-05-01T04:04:43.792Z,8.12
2019-05-01T04:07:13.788Z,8.15
2019-05-01T04:09:44.789Z,8.11
2019-05-01T04:12:14.885Z,8.01
2019-05-01T04:14:45.640Z,7.87
2019-05-01T04:17:22.156Z,7.93
2019-05-01T04:19:52.318Z,7.90
2019-05-01T04:22:23.604Z,8.23
2019-05-01T04:24:55.830Z,8.27
2019-05-01T04:27:31.435Z,8.05
2019-05-01T04:30:09.351Z,8.27
2019-05-01T04:32:51.888Z,7.99
2019-05-01T04:35:20.845Z,8.09
2019-05-01T04:37:51.438Z,8.04
2019-05-01T04:40:21.831Z,7.98
2019-05-01T04:42:53.894Z,8.03
2019-05-01T04:45:24.999Z,8.31
2019-05-01T04:47:55.461Z,8.35
2019-05-01T04:50:25.515Z,8.12
2019-05-01T04:52:56.002Z,8.11
2019-05-01T04:55:26.137Z,8.34
2019-05-01T04:57:58.941Z,8.48
2019-05-01T05:00:30.323Z,8.33
2019-05-01T05:03:05.683Z,8.26
2019-05-01T05:05:36.537Z,8.32
2019-05-01T05:08:08.584Z,8.10
2019-05-01T05:10:38.831Z,8.13
2019-05-01T05:14:05.619Z,8.29
2019-05-01T05:17:24.401Z,8.12
2019-05-01T05:20:23.749Z,8.10
2019-05-01T05:23:57.506Z,8.29
2019-05-01T05:27:29.259Z,8.34
2019-05-01T05:30:33.151Z,8.31
2019-05-01T05:34:05.804Z,8.31
2019-05-01T05:44:13.270Z,8.38
2019-05-01T05:52:04.036Z,8.33
2019-05-01T05:56:17.424Z,8.31
2019-05-01T05:59:31.989Z,8.48
2019-05-01T06:02:42.951Z,8.44
2019-05-01T06:06:15.236Z,8.37
2019-05-01T06:13:09.853Z,8.65
2019-05-01T06:17:15.021Z,8.48
2019-05-01T06:24:42.357Z,8.52
2019-05-01T06:36:01.490Z,8.30
2019-05-01T06:39:51.369Z,8.18
2019-05-01T06:42:22.039Z,8.30
2019-05-01T06:48:34.361Z,8.31
2019-05-01T06:51:55.221Z,8.57
2019-05-01T06:54:37.972Z,8.42
2019-05-01T06:57:38.561Z,8.42
2019-05-01T07:00:26.416Z,8.49
2019-05-01T07:03:22.616Z,8.55
2019-05-01T07:05:58.594Z,8.54
2019-05-01T07:08:29.448Z,8.52
2019-05-01T07:11:00.488Z,8.66
2019-05-01T07:13:35.553Z,8.63
2019-05-01T07:16:04.338Z,8.57
2019-05-01T07:18:38.974Z,8.51
2019-05-01T07:21:08.933Z,8.57
2019-05-01T07:23:40.505Z,8.86
2019-05-01T07:26:13.722Z,8.89
2019-05-01T07:28:44.183Z,8.88
2019-05-01T07:31:15.420Z,8.81
2019-05-01T07:33:51.094Z,9.01
2019-05-01T07:36:18.832Z,9.02
2019-05-01T07:38:48.952Z,9.14
2019-05-01T07:41:21.084Z,9.20
2019-05-01T07:44:04.192Z,9.20
2019-05-01T07:46:48.792Z,9.24
2019-05-01T07:49:26.087Z,9.29
2019-05-01T07:51:55.962Z,9.20
2019-05-01T07:54:26.063Z,9.13
2019-05-01T07:56:58.631Z,9.28
2019-05-01T07:59:28.770Z,9.35
2019-05-01T08:02:02.498Z,9.49
2019-05-01T08:04:36.553Z,9.53
2019-05-01T08:07:04.203Z,9.30
2019-05-01T08:09:35.106Z,9.16
2019-05-01T08:12:05.286Z,9.39
2019-05-01T08:14:36.068Z,9.35
2019-05-01T08:17:06.028Z,9.43
2019-05-01T08:19:56.403Z,9.56
2019-05-01T08:22:32.191Z,9.68
2019-05-01T08:25:02.798Z,9.88
2019-05-01T08:27:56.340Z,9.70
2019-05-01T08:30:40.769Z,9.57
2019-05-01T08:33:31.914Z,9.72
2019-05-01T08:36:01.900Z,10.02
2019-05-01T08:38:34.215Z,9.98
2019-05-01T08:41:04.181Z,9.77
2019-05-01T08:43:35.532Z,9.44
2019-05-01T08:46:27.763Z,9.45
2019-05-01T08:49:11.428Z,9.50
2019-05-01T08:51:40.885Z,9.79
2019-05-01T08:54:10.926Z,9.53
2019-05-01T08:56:43.699Z,9.73
2019-05-01T08:59:13.429Z,9.92
2019-05-01T09:01:45.796Z,9.98
2019-05-01T09:04:15.127Z,9.85
2019-05-01T09:06:45.232Z,9.77
2019-05-01T09:09:18.108Z,9.98
2019-05-01T09:11:48.099Z,9.74
2019-05-01T09:14:18.094Z,9.63
2019-05-01T09:16:48.074Z,9.82
2019-05-01T09:19:18.057Z,9.92
2019-05-01T09:21:49.026Z,9.71
2019-05-01T09:24:23.153Z,9.99
2019-05-01T09:27:08.314Z,10.27
2019-05-01T09:29:59.013Z,10.30
2019-05-01T09:32:37.032Z,10.06
2019-05-01T09:35:32.816Z,9.72
2019-05-01T09:38:32.735Z,9.93
2019-05-01T09:41:09.067Z,10.32
2019-05-01T09:44:10.662Z,10.20
2019-05-01T09:46:50.404Z,10.23
2019-05-01T09:49:36.830Z,10.07
2019-05-01T09:52:55.193Z,10.11
2019-05-01T09:55:55.338Z,10.01
2019-05-01T09:58:40.925Z,10.20
2019-05-01T10:01:24.607Z,10.15
2019-05-01T10:04:07.916Z,10.30
2019-05-01T10:06:42.157Z,10.14
2019-05-01T10:09:16.768Z,10.13
2019-05-01T10:11:45.608Z,10.22
2019-05-01T10:14:15.685Z,10.37
2019-05-01T10:16:45.982Z,10.22
2019-05-01T10:19:17.262Z,10.13
2019-05-01T10:21:47.392Z,10.16
2019-05-01T10:24:17.678Z,10.38
2019-05-01T10:26:49.683Z,10.41
2019-05-01T10:29:49.171Z,10.52
2019-05-01T10:32:23.846Z,10.52
2019-05-01T10:35:14.314Z,10.83
2019-05-01T10:37:42.320Z,10.39
2019-05-01T10:40:12.612Z,10.78
2019-05-01T10:42:42.935Z,10.63
2019-05-01T10:45:13.422Z,10.72
2019-05-01T10:47:43.530Z,10.69
2019-05-01T10:50:14.273Z,11.17
2019-05-01T10:52:44.232Z,10.87
2019-05-01T10:55:15.549Z,11.20
2019-05-01T10:57:45.794Z,11.21
2019-05-01T11:00:16.186Z,10.85
2019-05-01T11:02:46.430Z,11.47
2019-05-01T11:05:16.618Z,11.31
2019-05-01T11:07:46.768Z,10.93
2019-05-01T11:10:18.556Z,11.38
2019-05-01T11:12:48.793Z,11.85
2019-05-01T11:15:19.080Z,12.23
2019-05-01T11:17:49.381Z,11.84
2019-05-01T11:20:19.690Z,11.98
2019-05-01T11:22:50.101Z,11.76
2019-05-01T11:25:20.584Z,11.70
2019-05-01T11:27:57.307Z,11.85
2019-05-01T11:30:27.721Z,12.04
2019-05-01T11:33:07.045Z,11.55
2019-05-01T11:36:09.327Z,11.87
2019-05-01T11:38:52.472Z,11.68
2019-05-01T11:41:33.534Z,12.32
2019-05-01T11:44:03.965Z,12.38
2019-05-01T11:46:39.318Z,12.24
2019-05-01T11:49:13.579Z,12.06
2019-05-01T11:51:48.355Z,11.99
2019-05-01T11:54:19.586Z,11.76
2019-05-01T11:56:50.023Z,11.88
2019-05-01T11:59:55.777Z,11.97
2019-05-01T12:02:29.846Z,11.94
2019-05-01T12:05:00.337Z,11.79
2019-05-01T12:07:31.110Z,11.83
2019-05-01T12:10:02.211Z,11.69
2019-05-01T12:12:34.834Z,11.94
2019-05-01T12:15:07.438Z,11.96
2019-05-01T12:17:43.242Z,11.75
2019-05-01T12:20:15.023Z,11.83
2019-05-01T12:22:51.358Z,12.03
2019-05-01T12:25:20.948Z,11.92
2019-05-01T12:27:51.758Z,11.08
2019-05-01T12:30:21.739Z,11.55
2019-05-01T12:32:51.737Z,11.35
2019-05-01T12:35:23.368Z,11.38
2019-05-01T12:37:55.630Z,11.60
2019-05-01T12:40:25.611Z,11.50
2019-05-01T12:42:55.586Z,11.35
2019-05-01T12:45:26.567Z,11.51
2019-05-01T12:47:58.544Z,11.53
2019-05-01T12:50:28.625Z,11.66
2019-05-01T12:53:32.944Z,11.32
2019-05-01T12:56:27.622Z,11.52
2019-05-01T12:58:57.607Z,11.66
2019-05-01T13:01:27.651Z,11.81
2019-05-01T13:03:57.649Z,11.62
2019-05-01T13:06:27.617Z,11.50
2019-05-01T13:08:57.659Z,11.27
2019-05-01T13:11:27.603Z,11.60
2019-05-01T13:13:58.928Z,12.18
2019-05-01T13:16:28.873Z,12.16
2019-05-01T13:18:58.863Z,11.64
2019-05-01T13:21:28.994Z,11.83
2019-05-01T13:23:59.016Z,12.08
2019-05-01T13:26:43.293Z,12.49
2019-05-01T13:29:19.780Z,13.00
2019-05-01T13:32:07.193Z,13.06
2019-05-01T13:34:37.233Z,11.92
2019-05-01T13:37:07.378Z,13.09
2019-05-01T13:39:38.097Z,12.57
2019-05-01T13:42:09.065Z,13.21
2019-05-01T13:44:39.393Z,13.12
2019-05-01T13:47:09.887Z,13.39
2019-05-01T13:49:39.911Z,13.63
2019-05-01T13:52:09.912Z,13.90
2019-05-01T13:54:39.846Z,13.59
2019-05-01T13:57:09.929Z,12.99
2019-05-01T13:59:39.922Z,13.23
2019-05-01T14:02:10.397Z,12.97
2019-05-01T14:04:40.448Z,13.49
2019-05-01T14:07:16.743Z,13.05
2019-05-01T14:09:42.264Z,13.45
2019-05-01T14:12:12.275Z,13.20
2019-05-01T14:14:43.809Z,12.54
2019-05-01T14:17:13.747Z,12.83
2019-05-01T14:19:47.251Z,13.19
2019-05-01T14:22:54.385Z,12.61
2019-05-01T14:25:24.337Z,12.76
2019-05-01T14:27:54.302Z,12.54
2019-05-01T14:30:25.255Z,12.65
2019-05-01T14:32:55.271Z,12.63
2019-05-01T14:35:25.305Z,13.38
2019-05-01T14:37:55.892Z,14.05
2019-05-01T14:40:25.995Z,13.96
2019-05-01T14:42:56.058Z,12.76
2019-05-01T14:45:26.103Z,12.21
2019-05-01T14:47:56.136Z,12.88
2019-05-01T14:51:01.740Z,12.15
2019-05-01T14:53:33.264Z,12.66
2019-05-01T14:56:03.384Z,13.28
2019-05-01T14:58:33.348Z,12.41
2019-05-01T15:01:03.382Z,13.15
2019-05-01T15:03:33.385Z,12.67
2019-05-01T15:06:04.566Z,12.43
2019-05-01T15:08:34.544Z,12.47
2019-05-01T15:11:05.698Z,12.10
2019-05-01T15:13:44.608Z,12.10
2019-05-01T15:16:20.694Z,11.67
2019-05-01T15:19:15.672Z,12.34
2019-05-01T15:21:45.832Z,12.06
2019-05-01T15:24:19.725Z,11.63
2019-05-01T15:26:50.569Z,11.63
2019-05-01T15:29:20.578Z,11.80
2019-05-01T15:31:50.671Z,11.59
2019-05-01T15:34:20.699Z,11.39
2019-05-01T15:37:00.547Z,11.61
2019-05-01T15:40:29.728Z,12.33
2019-05-01T15:43:23.962Z,11.93
2019-05-01T15:45:53.915Z,11.55
2019-05-01T15:48:23.974Z,11.69
2019-05-01T15:50:56.860Z,11.69
2019-05-01T15:53:26.958Z,11.51
2019-05-01T15:55:57.381Z,11.16
2019-05-01T15:58:27.564Z,11.22
2019-05-01T16:00:58.881Z,11.51
2019-05-01T16:03:28.951Z,11.82
2019-05-01T16:05:59.045Z,11.28
2019-05-01T16:08:29.096Z,11.08
2019-05-01T16:11:11.525Z,10.89
2019-05-01T16:13:41.524Z,11.03
2019-05-01T16:16:11.983Z,11.18
2019-05-01T16:18:43.092Z,11.02
2019-05-01T16:21:13.097Z,11.25
2019-05-01T16:23:43.104Z,11.12
2019-05-01T16:26:13.864Z,10.86
2019-05-01T16:28:43.840Z,10.62
2019-05-01T16:31:13.938Z,11.14
2019-05-01T16:33:43.913Z,11.07
2019-05-01T16:36:15.627Z,11.01
2019-05-01T16:38:57.296Z,11.13
2019-05-01T16:41:28.258Z,10.91
2019-05-01T16:43:58.331Z,11.35
2019-05-01T16:46:28.390Z,11.24
2019-05-01T16:48:58.394Z,11.13
2019-05-01T16:51:28.498Z,11.36
2019-05-01T16:53:58.544Z,10.97
2019-05-01T16:56:28.618Z,10.80
2019-05-01T16:58:58.628Z,10.74
2019-05-01T17:02:04.105Z,10.56
2019-05-01T17:04:51.754Z,10.62
2019-05-01T17:07:40.753Z,10.75
2019-05-01T17:10:25.462Z,10.62
2019-05-01T17:12:56.369Z,10.64
2019-05-01T17:15:30.617Z,10.53
2019-05-01T17:18:00.800Z,10.35
2019-05-01T17:20:30.890Z,10.56
2019-05-01T17:23:01.040Z,10.55
2019-05-01T17:25:31.124Z,10.90
2019-05-01T17:28:02.763Z,10.54
2019-05-01T17:30:41.090Z,10.31
2019-05-01T17:33:20.148Z,10.59
2019-05-01T17:35:44.462Z,10.51
2019-05-01T17:38:14.474Z,9.99
2019-05-01T17:40:47.343Z,10.22
2019-05-01T17:43:17.929Z,10.91
2019-05-01T17:45:48.024Z,10.92
2019-05-01T17:48:18.029Z,11.33
2019-05-01T17:50:48.082Z,10.22
2019-05-01T17:53:18.142Z,10.37
2019-05-01T17:55:48.208Z,9.80
2019-05-01T17:58:18.223Z,9.73
2019-05-01T18:01:01.662Z,9.86
2019-05-01T18:03:49.402Z,9.98
2019-05-01T18:06:22.575Z,9.93
2019-05-01T18:09:02.948Z,9.93
2019-05-01T18:11:24.442Z,9.75
2019-05-01T18:13:54.505Z,9.74
2019-05-01T18:16:24.529Z,9.59
2019-05-01T18:18:54.539Z,9.68
2019-05-01T18:21:24.710Z,9.70
2019-05-01T18:24:26.146Z,9.63
2019-05-01T18:27:20.515Z,9.59
2019-05-01T18:29:55.862Z,9.58
2019-05-01T18:32:36.163Z,9.57
2019-05-01T18:35:08.929Z,9.62
2019-05-01T18:37:56.268Z,9.38
2019-05-01T18:40:34.007Z,9.14
2019-05-01T18:43:04.623Z,9.17
2019-05-01T18:45:49.493Z,9.28
2019-05-01T18:48:19.877Z,8.92
2019-05-01T18:50:55.073Z,8.84
2019-05-01T18:53:23.458Z,8.84
2019-05-01T18:56:05.179Z,8.67
2019-05-01T18:58:33.272Z,8.69
2019-05-01T19:01:09.170Z,8.56
2019-05-01T19:03:42.203Z,8.64
2019-05-01T19:06:40.639Z,8.53
2019-05-01T19:09:14.864Z,8.65
2019-05-01T19:11:43.267Z,8.46
2019-05-01T19:14:28.654Z,8.30
2019-05-01T19:17:07.396Z,8.24
2019-05-01T19:19:44.499Z,8.43
2019-05-01T19:22:18.014Z,8.17
2019-05-01T19:24:51.670Z,8.10
2019-05-01T19:27:31.655Z,8.17
2019-05-01T19:30:09.736Z,8.16
2019-05-01T19:32:40.203Z,8.13
2019-05-01T19:35:13.279Z,8.09
2019-05-01T19:37:44.371Z,7.94
2019-05-01T19:40:18.368Z,8.04
2019-05-01T19:42:49.242Z,8.02
2019-05-01T19:45:23.001Z,7.97
2019-05-01T19:47:58.440Z,7.89
2019-05-01T19:50:32.212Z,7.82
2019-05-01T19:53:10.020Z,7.80
2019-05-01T19:55:44.871Z,7.72
2019-05-01T19:58:15.167Z,7.79
2019-05-01T20:01:13.520Z,7.79
2019-05-01T20:03:45.314Z,7.79
2019-05-01T20:06:18.540Z,7.73
2019-05-01T20:08:48.961Z,7.71
2019-05-01T20:11:19.045Z,7.65
2019-05-01T20:13:49.181Z,7.70
2019-05-01T20:16:20.471Z,7.63
2019-05-01T20:18:50.410Z,7.56
2019-05-01T20:21:20.485Z,7.57
2019-05-01T20:23:50.553Z,7.50
2019-05-01T20:26:20.523Z,7.51
2019-05-01T20:28:50.556Z,7.43
2019-05-01T20:31:22.853Z,7.45
2019-05-01T20:33:52.365Z,7.41
2019-05-01T20:36:22.399Z,7.24
2019-05-01T20:38:52.426Z,7.46
2019-05-01T20:41:22.545Z,7.28
2019-05-01T20:43:52.689Z,7.22
2019-05-01T20:46:26.023Z,7.16
2019-05-01T20:49:00.946Z,7.27
2019-05-01T20:51:28.424Z,7.31
2019-05-01T20:53:58.509Z,7.11
2019-05-01T20:56:52.331Z,7.20
2019-05-01T20:59:22.438Z,7.06
2019-05-01T21:01:52.507Z,7.18
2019-05-01T21:04:50.926Z,7.30
2019-05-01T21:07:32.437Z,7.19
2019-05-01T21:10:02.899Z,7.15
2019-05-01T21:12:34.577Z,7.12
2019-05-01T21:15:05.160Z,7.21
2019-05-01T21:17:35.152Z,7.10
2019-05-01T21:20:05.705Z,7.16
2019-05-01T21:22:35.735Z,7.31
2019-05-01T21:25:05.920Z,7.06
2019-05-01T21:27:37.703Z,7.10
2019-05-01T21:30:08.843Z,7.08
2019-05-01T21:32:38.930Z,7.01
2019-05-01T21:35:09.035Z,7.17
2019-05-01T21:37:40.404Z,7.03
2019-05-01T21:40:12.875Z,7.05
2019-05-01T21:42:47.369Z,6.93
2019-05-01T21:45:17.496Z,6.92
2019-05-01T21:47:47.706Z,6.81
2019-05-01T21:50:21.999Z,6.73
2019-05-01T21:52:49.546Z,6.73
2019-05-01T21:55:19.608Z,6.73
2019-05-01T21:57:50.210Z,6.56
2019-05-01T22:00:24.928Z,6.73
2019-05-01T22:02:55.238Z,6.59
2019-05-01T22:05:25.337Z,6.73
2019-05-01T22:07:58.801Z,6.63
2019-05-01T22:10:28.447Z,6.64
2019-05-01T22:12:58.900Z,6.69
2019-05-01T22:15:34.561Z,6.72
2019-05-01T22:18:15.404Z,6.62
2019-05-01T22:20:50.541Z,6.69
2019-05-01T22:23:23.257Z,6.66
2019-05-01T22:25:57.566Z,6.72
2019-05-01T22:28:33.320Z,6.56
2019-05-01T22:31:23.431Z,6.61
2019-05-01T22:34:01.445Z,6.71
2019-05-01T22:36:31.475Z,6.73
2019-05-01T22:39:02.282Z,6.69
2019-05-01T22:41:34.905Z,6.56
2019-05-01T22:44:05.006Z,6.50
2019-05-01T22:46:39.043Z,6.54
2019-05-01T22:49:06.801Z,6.64
2019-05-01T22:51:36.723Z,6.61
2019-05-01T22:54:07.799Z,6.57
2019-05-01T22:56:37.776Z,6.58
2019-05-01T22:59:07.915Z,6.68
2019-05-01T23:01:38.012Z,6.57
2019-05-01T23:04:12.166Z,6.66
2019-05-01T23:06:41.735Z,6.61
2019-05-01T23:09:13.666Z,6.67
2019-05-01T23:11:45.582Z,6.70
2019-05-01T23:14:17.447Z,6.65
2019-05-01T23:17:09.402Z,6.63
2019-05-01T23:19:39.681Z,6.69
2019-05-01T23:22:10.263Z,6.60
2019-05-01T23:24:40.341Z,6.59
2019-05-01T23:27:10.347Z,6.68
2019-05-01T23:29:40.341Z,6.70
2019-05-01T23:32:10.404Z,6.60
2019-05-01T23:34:40.345Z,6.79
2019-05-01T23:37:10.349Z,6.70
2019-05-01T23:39:42.141Z,6.64
2019-05-01T23:42:12.196Z,6.61
2019-05-01T23:44:42.941Z,6.56
2019-05-01T23:47:15.256Z,6.57
2019-05-01T23:49:47.679Z,6.68
2019-05-01T23:52:18.224Z,6.58
2019-05-01T23:54:48.205Z,6.62
2019-05-01T23:57:18.886Z,6.65
2019-05-01T23:59:50.046Z,6.65
